sensor_id;sensor_type;location;lat;lon;timestamp;P1;durP1;ratioP1;P2;durP2;ratioP2
63110;SDS011;49201;53.426;10.300;2023-02-05T00:01:39;3.83;;;2.93;;
63110;SDS011;49201;53.426;10.300;2023-02-05T00:04:05;4.13;;;2.83;;
63110;SDS011;49201;53.426;10.300;2023-02-05T00:06:31;5.43;;;2.50;;
63110;SDS011;49201;53.426;10.300;2023-02-05T00:08:56;4.90;;;2.77;;
63110;SDS011;49201;53.426;10.300;2023-02-05T00:11:22;3.23;;;2.43;;
63110;SDS011;49201;53.426;10.300;2023-02-05T00:13:47;4.60;;;2.80;;
63110;SDS011;49201;53.426;10.300;2023-02-05T00:16:14;5.43;;;2.73;;
63110;SDS011;49201;53.426;10.300;2023-02-05T00:18:42;5.07;;;2.80;;
63110;SDS011;49201;53.426;10.300;2023-02-05T00:21:08;2.87;;;2.53;;
63110;SDS011;49201;53.426;10.300;2023-02-05T00:23:35;3.30;;;2.50;;
63110;SDS011;49201;53.426;10.300;2023-02-05T00:26:01;3.23;;;2.80;;
63110;SDS011;49201;53.426;10.300;2023-02-05T00:28:29;3.83;;;2.30;;
63110;SDS011;49201;53.426;10.300;2023-02-05T00:30:55;3.53;;;2.90;;
63110;SDS011;49201;53.426;10.300;2023-02-05T00:33:21;3.83;;;2.43;;
63110;SDS011;49201;53.426;10.300;2023-02-05T00:35:47;7.67;;;3.17;;
63110;SDS011;49201;53.426;10.300;2023-02-05T00:38:13;5.57;;;2.60;;
63110;SDS011;49201;53.426;10.300;2023-02-05T00:40:38;4.23;;;2.27;;
63110;SDS011;49201;53.426;10.300;2023-02-05T00:43:04;3.87;;;2.73;;
63110;SDS011;49201;53.426;10.300;2023-02-05T00:45:29;5.70;;;2.63;;
63110;SDS011;49201;53.426;10.300;2023-02-05T00:48:02;4.07;;;2.60;;
63110;SDS011;49201;53.426;10.300;2023-02-05T00:50:29;4.03;;;2.60;;
63110;SDS011;49201;53.426;10.300;2023-02-05T00:52:55;4.47;;;2.70;;
63110;SDS011;49201;53.426;10.300;2023-02-05T00:55:20;5.60;;;3.10;;
63110;SDS011;49201;53.426;10.300;2023-02-05T00:57:46;4.70;;;2.60;;
63110;SDS011;49201;53.426;10.300;2023-02-05T01:00:12;5.20;;;2.70;;
63110;SDS011;49201;53.426;10.300;2023-02-05T01:02:38;5.43;;;2.67;;
63110;SDS011;49201;53.426;10.300;2023-02-05T01:05:03;3.67;;;2.60;;
63110;SDS011;49201;53.426;10.300;2023-02-05T01:07:29;6.67;;;2.73;;
63110;SDS011;49201;53.426;10.300;2023-02-05T01:09:54;4.80;;;2.70;;
63110;SDS011;49201;53.426;10.300;2023-02-05T01:12:20;5.77;;;2.33;;
63110;SDS011;49201;53.426;10.300;2023-02-05T01:14:46;4.20;;;2.53;;
63110;SDS011;49201;53.426;10.300;2023-02-05T01:17:11;3.50;;;2.13;;
63110;SDS011;49201;53.426;10.300;2023-02-05T01:19:37;4.00;;;2.53;;
63110;SDS011;49201;53.426;10.300;2023-02-05T01:22:02;3.87;;;2.67;;
63110;SDS011;49201;53.426;10.300;2023-02-05T01:24:29;4.23;;;2.70;;
63110;SDS011;49201;53.426;10.300;2023-02-05T01:26:54;3.80;;;2.43;;
63110;SDS011;49201;53.426;10.300;2023-02-05T01:29:26;3.87;;;2.50;;
63110;SDS011;49201;53.426;10.300;2023-02-05T01:31:51;3.63;;;2.87;;
63110;SDS011;49201;53.426;10.300;2023-02-05T01:34:17;3.57;;;2.77;;
63110;SDS011;49201;53.426;10.300;2023-02-05T01:36:43;3.07;;;2.23;;
63110;SDS011;49201;53.426;10.300;2023-02-05T01:39:08;5.83;;;2.30;;
63110;SDS011;49201;53.426;10.300;2023-02-05T01:41:34;2.97;;;2.00;;
63110;SDS011;49201;53.426;10.300;2023-02-05T01:44:33;4.13;;;2.53;;
63110;SDS011;49201;53.426;10.300;2023-02-05T01:46:54;3.00;;;2.10;;
63110;SDS011;49201;53.426;10.300;2023-02-05T01:49:26;3.73;;;2.60;;
63110;SDS011;49201;53.426;10.300;2023-02-05T01:51:55;4.70;;;2.60;;
63110;SDS011;49201;53.426;10.300;2023-02-05T01:54:24;3.17;;;2.20;;
63110;SDS011;49201;53.426;10.300;2023-02-05T01:56:54;5.63;;;2.67;;
63110;SDS011;49201;53.426;10.300;2023-02-05T01:59:26;2.63;;;2.30;;
63110;SDS011;49201;53.426;10.300;2023-02-05T02:01:54;4.33;;;2.07;;
63110;SDS011;49201;53.426;10.300;2023-02-05T02:07:19;3.13;;;2.23;;
63110;SDS011;49201;53.426;10.300;2023-02-05T02:09:47;3.47;;;2.23;;
63110;SDS011;49201;53.426;10.300;2023-02-05T02:12:15;3.33;;;2.33;;
63110;SDS011;49201;53.426;10.300;2023-02-05T02:14:46;4.87;;;2.40;;
63110;SDS011;49201;53.426;10.300;2023-02-05T02:17:15;5.03;;;2.47;;
63110;SDS011;49201;53.426;10.300;2023-02-05T02:25:12;5.23;;;2.10;;
63110;SDS011;49201;53.426;10.300;2023-02-05T02:28:08;2.83;;;2.13;;
63110;SDS011;49201;53.426;10.300;2023-02-05T02:30:39;6.03;;;2.07;;
63110;SDS011;49201;53.426;10.300;2023-02-05T02:33:20;4.83;;;2.57;;
63110;SDS011;49201;53.426;10.300;2023-02-05T02:35:51;3.87;;;2.40;;
63110;SDS011;49201;53.426;10.300;2023-02-05T02:38:32;3.00;;;2.10;;
63110;SDS011;49201;53.426;10.300;2023-02-05T02:41:08;3.87;;;2.60;;
63110;SDS011;49201;53.426;10.300;2023-02-05T02:46:27;3.60;;;2.20;;
63110;SDS011;49201;53.426;10.300;2023-02-05T02:49:02;5.70;;;2.13;;
63110;SDS011;49201;53.426;10.300;2023-02-05T02:51:30;2.67;;;2.20;;
63110;SDS011;49201;53.426;10.300;2023-02-05T02:53:58;3.57;;;2.20;;
63110;SDS011;49201;53.426;10.300;2023-02-05T02:56:28;3.00;;;2.10;;
63110;SDS011;49201;53.426;10.300;2023-02-05T02:58:58;2.97;;;2.10;;
63110;SDS011;49201;53.426;10.300;2023-02-05T03:01:33;3.13;;;1.93;;
63110;SDS011;49201;53.426;10.300;2023-02-05T03:04:03;3.90;;;2.40;;
63110;SDS011;49201;53.426;10.300;2023-02-05T03:06:43;3.73;;;2.00;;
63110;SDS011;49201;53.426;10.300;2023-02-05T03:09:16;2.73;;;2.07;;
63110;SDS011;49201;53.426;10.300;2023-02-05T03:11:50;4.00;;;2.20;;
63110;SDS011;49201;53.426;10.300;2023-02-05T03:14:16;3.33;;;1.90;;
63110;SDS011;49201;53.426;10.300;2023-02-05T03:16:41;5.53;;;2.20;;
63110;SDS011;49201;53.426;10.300;2023-02-05T03:19:07;3.07;;;2.20;;
63110;SDS011;49201;53.426;10.300;2023-02-05T03:21:34;4.07;;;2.13;;
63110;SDS011;49201;53.426;10.300;2023-02-05T03:24:20;3.90;;;1.97;;
63110;SDS011;49201;53.426;10.300;2023-02-05T03:26:47;3.67;;;2.03;;
63110;SDS011;49201;53.426;10.300;2023-02-05T03:29:17;2.90;;;2.30;;
63110;SDS011;49201;53.426;10.300;2023-02-05T03:34:27;3.23;;;2.13;;
63110;SDS011;49201;53.426;10.300;2023-02-05T03:51:15;4.37;;;2.20;;
63110;SDS011;49201;53.426;10.300;2023-02-05T03:57:07;3.80;;;2.10;;
63110;SDS011;49201;53.426;10.300;2023-02-05T03:59:24;3.53;;;2.10;;
63110;SDS011;49201;53.426;10.300;2023-02-05T04:01:52;3.90;;;2.10;;
63110;SDS011;49201;53.426;10.300;2023-02-05T04:04:18;3.00;;;2.40;;
63110;SDS011;49201;53.426;10.300;2023-02-05T04:06:46;4.27;;;2.00;;
63110;SDS011;49201;53.426;10.300;2023-02-05T04:09:14;4.63;;;2.20;;
63110;SDS011;49201;53.426;10.300;2023-02-05T04:11:39;3.77;;;2.37;;
63110;SDS011;49201;53.426;10.300;2023-02-05T04:14:05;3.37;;;2.10;;
63110;SDS011;49201;53.426;10.300;2023-02-05T04:16:31;2.63;;;2.07;;
63110;SDS011;49201;53.426;10.300;2023-02-05T04:18:58;4.87;;;2.20;;
63110;SDS011;49201;53.426;10.300;2023-02-05T04:21:25;3.17;;;1.90;;
63110;SDS011;49201;53.426;10.300;2023-02-05T04:23:50;3.87;;;2.10;;
63110;SDS011;49201;53.426;10.300;2023-02-05T04:26:16;3.37;;;2.30;;
63110;SDS011;49201;53.426;10.300;2023-02-05T04:28:50;3.07;;;2.13;;
63110;SDS011;49201;53.426;10.300;2023-02-05T04:31:15;2.57;;;2.13;;
63110;SDS011;49201;53.426;10.300;2023-02-05T04:33:41;4.23;;;1.90;;
63110;SDS011;49201;53.426;10.300;2023-02-05T04:36:09;4.70;;;2.10;;
63110;SDS011;49201;53.426;10.300;2023-02-05T04:38:36;3.17;;;2.10;;
63110;SDS011;49201;53.426;10.300;2023-02-05T04:41:01;3.50;;;2.30;;
63110;SDS011;49201;53.426;10.300;2023-02-05T04:43:27;4.90;;;2.40;;
63110;SDS011;49201;53.426;10.300;2023-02-05T04:45:52;3.10;;;2.33;;
63110;SDS011;49201;53.426;10.300;2023-02-05T04:48:18;3.30;;;2.40;;
63110;SDS011;49201;53.426;10.300;2023-02-05T04:50:45;2.63;;;2.13;;
63110;SDS011;49201;53.426;10.300;2023-02-05T04:53:11;3.73;;;2.33;;
63110;SDS011;49201;53.426;10.300;2023-02-05T04:55:36;4.63;;;2.53;;
63110;SDS011;49201;53.426;10.300;2023-02-05T04:58:02;3.60;;;2.33;;
63110;SDS011;49201;53.426;10.300;2023-02-05T05:00:27;3.50;;;2.37;;
63110;SDS011;49201;53.426;10.300;2023-02-05T05:02:53;3.30;;;2.80;;
63110;SDS011;49201;53.426;10.300;2023-02-05T05:05:18;4.70;;;2.27;;
63110;SDS011;49201;53.426;10.300;2023-02-05T05:07:44;2.27;;;2.03;;
63110;SDS011;49201;53.426;10.300;2023-02-05T05:10:09;2.97;;;1.90;;
63110;SDS011;49201;53.426;10.300;2023-02-05T05:12:36;5.00;;;2.70;;
63110;SDS011;49201;53.426;10.300;2023-02-05T05:15:02;3.63;;;2.50;;
63110;SDS011;49201;53.426;10.300;2023-02-05T05:17:29;3.53;;;2.50;;
63110;SDS011;49201;53.426;10.300;2023-02-05T05:19:55;6.47;;;2.50;;
63110;SDS011;49201;53.426;10.300;2023-02-05T05:22:20;4.33;;;2.80;;
63110;SDS011;49201;53.426;10.300;2023-02-05T05:24:45;3.57;;;2.40;;
63110;SDS011;49201;53.426;10.300;2023-02-05T05:27:11;3.83;;;2.40;;
63110;SDS011;49201;53.426;10.300;2023-02-05T05:29:36;4.13;;;2.40;;
63110;SDS011;49201;53.426;10.300;2023-02-05T05:32:02;3.10;;;2.37;;
63110;SDS011;49201;53.426;10.300;2023-02-05T05:34:28;3.43;;;2.20;;
63110;SDS011;49201;53.426;10.300;2023-02-05T05:36:53;3.87;;;2.30;;
63110;SDS011;49201;53.426;10.300;2023-02-05T05:39:19;3.70;;;2.03;;
63110;SDS011;49201;53.426;10.300;2023-02-05T05:42:03;3.23;;;2.40;;
63110;SDS011;49201;53.426;10.300;2023-02-05T05:44:47;4.00;;;2.47;;
63110;SDS011;49201;53.426;10.300;2023-02-05T05:47:19;3.40;;;2.70;;
63110;SDS011;49201;53.426;10.300;2023-02-05T05:49:45;2.50;;;2.03;;
63110;SDS011;49201;53.426;10.300;2023-02-05T05:52:11;4.17;;;2.67;;
63110;SDS011;49201;53.426;10.300;2023-02-05T05:54:36;5.77;;;2.70;;
63110;SDS011;49201;53.426;10.300;2023-02-05T05:57:02;3.70;;;2.70;;
63110;SDS011;49201;53.426;10.300;2023-02-05T05:59:28;4.30;;;2.70;;
63110;SDS011;49201;53.426;10.300;2023-02-05T06:01:53;2.67;;;2.20;;
63110;SDS011;49201;53.426;10.300;2023-02-05T06:04:18;4.73;;;2.50;;
63110;SDS011;49201;53.426;10.300;2023-02-05T06:06:44;4.27;;;2.60;;
63110;SDS011;49201;53.426;10.300;2023-02-05T06:09:09;2.83;;;2.37;;
63110;SDS011;49201;53.426;10.300;2023-02-05T06:11:35;4.63;;;2.80;;
63110;SDS011;49201;53.426;10.300;2023-02-05T06:14:00;4.03;;;2.70;;
63110;SDS011;49201;53.426;10.300;2023-02-05T06:16:26;4.10;;;2.60;;
63110;SDS011;49201;53.426;10.300;2023-02-05T06:18:51;3.77;;;2.97;;
63110;SDS011;49201;53.426;10.300;2023-02-05T06:21:17;3.93;;;2.67;;
63110;SDS011;49201;53.426;10.300;2023-02-05T06:23:43;4.07;;;3.00;;
63110;SDS011;49201;53.426;10.300;2023-02-05T06:26:08;2.90;;;2.30;;
63110;SDS011;49201;53.426;10.300;2023-02-05T06:28:34;4.47;;;2.60;;
63110;SDS011;49201;53.426;10.300;2023-02-05T06:30:59;4.27;;;2.60;;
63110;SDS011;49201;53.426;10.300;2023-02-05T06:33:24;3.73;;;2.73;;
63110;SDS011;49201;53.426;10.300;2023-02-05T06:35:50;4.67;;;2.57;;
63110;SDS011;49201;53.426;10.300;2023-02-05T06:38:15;3.63;;;2.60;;
63110;SDS011;49201;53.426;10.300;2023-02-05T06:40:41;5.50;;;2.90;;
63110;SDS011;49201;53.426;10.300;2023-02-05T06:43:06;2.97;;;2.63;;
63110;SDS011;49201;53.426;10.300;2023-02-05T06:45:32;3.80;;;2.90;;
63110;SDS011;49201;53.426;10.300;2023-02-05T06:47:57;4.00;;;2.80;;
63110;SDS011;49201;53.426;10.300;2023-02-05T06:50:23;7.47;;;3.60;;
63110;SDS011;49201;53.426;10.300;2023-02-05T06:52:48;4.03;;;3.10;;
63110;SDS011;49201;53.426;10.300;2023-02-05T06:55:15;4.80;;;3.27;;
63110;SDS011;49201;53.426;10.300;2023-02-05T06:57:41;3.67;;;2.80;;
63110;SDS011;49201;53.426;10.300;2023-02-05T07:00:07;4.83;;;2.77;;
63110;SDS011;49201;53.426;10.300;2023-02-05T07:02:33;5.77;;;2.73;;
63110;SDS011;49201;53.426;10.300;2023-02-05T07:04:58;3.73;;;2.73;;
63110;SDS011;49201;53.426;10.300;2023-02-05T07:07:24;4.87;;;3.07;;
63110;SDS011;49201;53.426;10.300;2023-02-05T07:09:49;5.80;;;3.13;;
63110;SDS011;49201;53.426;10.300;2023-02-05T07:12:15;5.73;;;3.40;;
63110;SDS011;49201;53.426;10.300;2023-02-05T07:14:40;5.97;;;3.03;;
63110;SDS011;49201;53.426;10.300;2023-02-05T07:17:06;4.63;;;3.07;;
63110;SDS011;49201;53.426;10.300;2023-02-05T07:19:33;3.43;;;3.00;;
63110;SDS011;49201;53.426;10.300;2023-02-05T07:21:59;5.43;;;3.07;;
63110;SDS011;49201;53.426;10.300;2023-02-05T07:24:24;4.17;;;3.23;;
63110;SDS011;49201;53.426;10.300;2023-02-05T07:26:50;9.17;;;3.50;;
63110;SDS011;49201;53.426;10.300;2023-02-05T07:29:15;5.20;;;2.90;;
63110;SDS011;49201;53.426;10.300;2023-02-05T07:31:41;4.80;;;3.30;;
63110;SDS011;49201;53.426;10.300;2023-02-05T07:34:06;5.13;;;3.13;;
63110;SDS011;49201;53.426;10.300;2023-02-05T07:36:32;3.60;;;2.70;;
63110;SDS011;49201;53.426;10.300;2023-02-05T07:38:57;5.00;;;3.03;;
63110;SDS011;49201;53.426;10.300;2023-02-05T07:41:23;5.97;;;3.27;;
63110;SDS011;49201;53.426;10.300;2023-02-05T07:43:51;5.47;;;2.87;;
63110;SDS011;49201;53.426;10.300;2023-02-05T07:46:17;4.37;;;3.33;;
63110;SDS011;49201;53.426;10.300;2023-02-05T07:48:43;6.77;;;3.50;;
63110;SDS011;49201;53.426;10.300;2023-02-05T07:51:12;9.33;;;4.00;;
63110;SDS011;49201;53.426;10.300;2023-02-05T07:53:40;5.03;;;3.43;;
63110;SDS011;49201;53.426;10.300;2023-02-05T07:56:06;4.43;;;3.20;;
63110;SDS011;49201;53.426;10.300;2023-02-05T07:58:31;4.50;;;2.90;;
63110;SDS011;49201;53.426;10.300;2023-02-05T08:01:00;5.03;;;3.20;;
63110;SDS011;49201;53.426;10.300;2023-02-05T08:03:26;5.03;;;2.97;;
63110;SDS011;49201;53.426;10.300;2023-02-05T08:05:53;5.13;;;2.63;;
63110;SDS011;49201;53.426;10.300;2023-02-05T08:08:18;4.10;;;2.90;;
63110;SDS011;49201;53.426;10.300;2023-02-05T08:10:44;4.90;;;2.87;;
63110;SDS011;49201;53.426;10.300;2023-02-05T08:13:09;5.63;;;3.23;;
63110;SDS011;49201;53.426;10.300;2023-02-05T08:15:36;4.83;;;2.87;;
63110;SDS011;49201;53.426;10.300;2023-02-05T08:18:03;5.83;;;2.90;;
63110;SDS011;49201;53.426;10.300;2023-02-05T08:20:28;4.83;;;3.00;;
63110;SDS011;49201;53.426;10.300;2023-02-05T08:22:53;4.70;;;2.73;;
63110;SDS011;49201;53.426;10.300;2023-02-05T08:25:19;3.50;;;3.20;;
63110;SDS011;49201;53.426;10.300;2023-02-05T08:27:44;4.53;;;2.93;;
63110;SDS011;49201;53.426;10.300;2023-02-05T08:30:12;5.17;;;3.20;;
63110;SDS011;49201;53.426;10.300;2023-02-05T08:32:39;6.23;;;3.30;;
63110;SDS011;49201;53.426;10.300;2023-02-05T08:35:05;5.20;;;3.10;;
63110;SDS011;49201;53.426;10.300;2023-02-05T08:37:31;3.83;;;2.77;;
63110;SDS011;49201;53.426;10.300;2023-02-05T08:39:56;3.70;;;2.50;;
63110;SDS011;49201;53.426;10.300;2023-02-05T08:42:21;5.33;;;3.00;;
63110;SDS011;49201;53.426;10.300;2023-02-05T08:44:48;5.57;;;3.20;;
63110;SDS011;49201;53.426;10.300;2023-02-05T08:47:15;5.23;;;3.30;;
63110;SDS011;49201;53.426;10.300;2023-02-05T08:49:43;4.33;;;3.30;;
63110;SDS011;49201;53.426;10.300;2023-02-05T08:52:08;4.53;;;3.20;;
63110;SDS011;49201;53.426;10.300;2023-02-05T08:54:34;4.23;;;2.83;;
63110;SDS011;49201;53.426;10.300;2023-02-05T08:56:59;4.23;;;3.27;;
63110;SDS011;49201;53.426;10.300;2023-02-05T08:59:25;4.73;;;3.07;;
63110;SDS011;49201;53.426;10.300;2023-02-05T09:01:50;5.83;;;3.00;;
63110;SDS011;49201;53.426;10.300;2023-02-05T09:04:16;7.90;;;3.27;;
63110;SDS011;49201;53.426;10.300;2023-02-05T09:06:43;4.63;;;3.10;;
63110;SDS011;49201;53.426;10.300;2023-02-05T09:09:09;6.40;;;3.50;;
63110;SDS011;49201;53.426;10.300;2023-02-05T09:11:35;9.53;;;3.80;;
63110;SDS011;49201;53.426;10.300;2023-02-05T09:14:01;7.63;;;3.17;;
63110;SDS011;49201;53.426;10.300;2023-02-05T09:16:27;7.13;;;3.10;;
63110;SDS011;49201;53.426;10.300;2023-02-05T09:18:53;4.83;;;2.97;;
63110;SDS011;49201;53.426;10.300;2023-02-05T09:21:20;7.47;;;4.93;;
63110;SDS011;49201;53.426;10.300;2023-02-05T09:23:45;4.77;;;3.70;;
63110;SDS011;49201;53.426;10.300;2023-02-05T09:26:11;6.43;;;3.07;;
63110;SDS011;49201;53.426;10.300;2023-02-05T09:28:37;5.10;;;2.90;;
63110;SDS011;49201;53.426;10.300;2023-02-05T09:31:06;4.27;;;2.60;;
63110;SDS011;49201;53.426;10.300;2023-02-05T09:33:34;3.37;;;2.63;;
63110;SDS011;49201;53.426;10.300;2023-02-05T09:36:09;4.13;;;2.90;;
63110;SDS011;49201;53.426;10.300;2023-02-05T09:38:39;5.67;;;3.10;;
63110;SDS011;49201;53.426;10.300;2023-02-05T09:46:27;5.17;;;2.83;;
63110;SDS011;49201;53.426;10.300;2023-02-05T09:49:40;4.23;;;3.10;;
63110;SDS011;49201;53.426;10.300;2023-02-05T09:51:59;4.20;;;2.70;;
63110;SDS011;49201;53.426;10.300;2023-02-05T09:54:32;4.80;;;2.50;;
63110;SDS011;49201;53.426;10.300;2023-02-05T09:57:03;4.10;;;2.93;;
63110;SDS011;49201;53.426;10.300;2023-02-05T09:59:32;3.03;;;2.70;;
63110;SDS011;49201;53.426;10.300;2023-02-05T10:02:02;4.00;;;3.00;;
63110;SDS011;49201;53.426;10.300;2023-02-05T10:05:00;5.03;;;2.80;;
63110;SDS011;49201;53.426;10.300;2023-02-05T10:07:31;4.57;;;2.87;;
63110;SDS011;49201;53.426;10.300;2023-02-05T10:15:45;3.60;;;2.90;;
63110;SDS011;49201;53.426;10.300;2023-02-05T10:21:48;3.57;;;2.73;;
63110;SDS011;49201;53.426;10.300;2023-02-05T10:26:51;5.47;;;3.03;;
63110;SDS011;49201;53.426;10.300;2023-02-05T10:37:16;4.40;;;2.73;;
63110;SDS011;49201;53.426;10.300;2023-02-05T10:39:43;4.07;;;2.87;;
63110;SDS011;49201;53.426;10.300;2023-02-05T10:42:18;3.03;;;2.47;;
63110;SDS011;49201;53.426;10.300;2023-02-05T10:44:53;4.13;;;2.40;;
63110;SDS011;49201;53.426;10.300;2023-02-05T10:50:35;3.93;;;2.80;;
63110;SDS011;49201;53.426;10.300;2023-02-05T10:53:14;3.40;;;2.47;;
63110;SDS011;49201;53.426;10.300;2023-02-05T10:55:43;5.77;;;3.23;;
63110;SDS011;49201;53.426;10.300;2023-02-05T10:58:55;3.87;;;3.00;;
63110;SDS011;49201;53.426;10.300;2023-02-05T11:01:02;5.80;;;3.50;;
63110;SDS011;49201;53.426;10.300;2023-02-05T11:03:31;15.57;;;8.20;;
63110;SDS011;49201;53.426;10.300;2023-02-05T11:05:57;12.00;;;7.33;;
63110;SDS011;49201;53.426;10.300;2023-02-05T11:08:56;10.67;;;6.47;;
63110;SDS011;49201;53.426;10.300;2023-02-05T11:11:22;4.23;;;3.10;;
63110;SDS011;49201;53.426;10.300;2023-02-05T11:13:56;6.63;;;4.00;;
63110;SDS011;49201;53.426;10.300;2023-02-05T11:16:33;6.87;;;3.67;;
63110;SDS011;49201;53.426;10.300;2023-02-05T11:19:01;8.70;;;4.47;;
63110;SDS011;49201;53.426;10.300;2023-02-05T11:21:47;5.80;;;3.40;;
63110;SDS011;49201;53.426;10.300;2023-02-05T11:29:49;6.13;;;4.20;;
63110;SDS011;49201;53.426;10.300;2023-02-05T11:32:31;6.00;;;4.23;;
63110;SDS011;49201;53.426;10.300;2023-02-05T11:37:54;6.60;;;3.60;;
63110;SDS011;49201;53.426;10.300;2023-02-05T11:40:28;6.70;;;3.80;;
63110;SDS011;49201;53.426;10.300;2023-02-05T11:42:57;6.50;;;3.93;;
63110;SDS011;49201;53.426;10.300;2023-02-05T11:45:22;8.57;;;4.60;;
63110;SDS011;49201;53.426;10.300;2023-02-05T11:47:49;7.63;;;4.20;;
63110;SDS011;49201;53.426;10.300;2023-02-05T11:50:25;6.67;;;4.47;;
63110;SDS011;49201;53.426;10.300;2023-02-05T11:52:52;4.83;;;3.40;;
63110;SDS011;49201;53.426;10.300;2023-02-05T11:55:26;4.83;;;3.70;;
63110;SDS011;49201;53.426;10.300;2023-02-05T11:57:59;4.07;;;3.40;;
63110;SDS011;49201;53.426;10.300;2023-02-05T12:00:53;4.80;;;4.17;;
63110;SDS011;49201;53.426;10.300;2023-02-05T12:03:22;5.40;;;3.90;;
63110;SDS011;49201;53.426;10.300;2023-02-05T12:05:56;4.43;;;3.37;;
63110;SDS011;49201;53.426;10.300;2023-02-05T12:14:43;7.83;;;3.80;;
63110;SDS011;49201;53.426;10.300;2023-02-05T12:34:11;4.47;;;3.13;;
63110;SDS011;49201;53.426;10.300;2023-02-05T12:39:51;4.93;;;3.17;;
63110;SDS011;49201;53.426;10.300;2023-02-05T12:47:53;5.53;;;3.70;;
63110;SDS011;49201;53.426;10.300;2023-02-05T12:50:52;8.07;;;3.93;;
63110;SDS011;49201;53.426;10.300;2023-02-05T12:53:30;6.67;;;4.00;;
63110;SDS011;49201;53.426;10.300;2023-02-05T12:58:34;5.57;;;3.87;;
63110;SDS011;49201;53.426;10.300;2023-02-05T13:01:05;6.63;;;4.00;;
63110;SDS011;49201;53.426;10.300;2023-02-05T13:06:16;7.33;;;4.30;;
63110;SDS011;49201;53.426;10.300;2023-02-05T13:08:55;5.43;;;3.83;;
63110;SDS011;49201;53.426;10.300;2023-02-05T13:11:34;5.97;;;4.10;;
63110;SDS011;49201;53.426;10.300;2023-02-05T13:14:09;4.40;;;3.20;;
63110;SDS011;49201;53.426;10.300;2023-02-05T13:16:46;5.27;;;3.60;;
63110;SDS011;49201;53.426;10.300;2023-02-05T13:21:54;6.13;;;3.93;;
63110;SDS011;49201;53.426;10.300;2023-02-05T13:24:42;5.03;;;3.97;;
63110;SDS011;49201;53.426;10.300;2023-02-05T13:27:32;4.17;;;3.60;;
63110;SDS011;49201;53.426;10.300;2023-02-05T13:30:22;5.30;;;3.33;;
63110;SDS011;49201;53.426;10.300;2023-02-05T13:32:53;6.07;;;3.73;;
63110;SDS011;49201;53.426;10.300;2023-02-05T13:35:23;6.07;;;4.30;;
63110;SDS011;49201;53.426;10.300;2023-02-05T13:43:43;7.57;;;4.27;;
63110;SDS011;49201;53.426;10.300;2023-02-05T13:58:33;6.60;;;4.10;;
63110;SDS011;49201;53.426;10.300;2023-02-05T14:01:04;6.50;;;3.43;;
63110;SDS011;49201;53.426;10.300;2023-02-05T14:03:39;7.60;;;3.57;;
63110;SDS011;49201;53.426;10.300;2023-02-05T14:08:57;5.57;;;4.07;;
63110;SDS011;49201;53.426;10.300;2023-02-05T14:11:53;6.60;;;3.83;;
63110;SDS011;49201;53.426;10.300;2023-02-05T14:18:10;4.23;;;3.83;;
63110;SDS011;49201;53.426;10.300;2023-02-05T14:20:28;7.93;;;4.57;;
63110;SDS011;49201;53.426;10.300;2023-02-05T14:22:50;5.70;;;3.97;;
63110;SDS011;49201;53.426;10.300;2023-02-05T14:28:31;5.50;;;4.20;;
63110;SDS011;49201;53.426;10.300;2023-02-05T14:33:25;5.23;;;4.23;;
63110;SDS011;49201;53.426;10.300;2023-02-05T14:36:41;6.90;;;4.47;;
63110;SDS011;49201;53.426;10.300;2023-02-05T14:41:36;7.70;;;5.60;;
63110;SDS011;49201;53.426;10.300;2023-02-05T14:54:32;6.00;;;4.63;;
63110;SDS011;49201;53.426;10.300;2023-02-05T15:02:01;5.80;;;4.53;;
63110;SDS011;49201;53.426;10.300;2023-02-05T15:04:28;7.33;;;4.50;;
63110;SDS011;49201;53.426;10.300;2023-02-05T15:07:18;6.77;;;5.13;;
63110;SDS011;49201;53.426;10.300;2023-02-05T15:09:56;6.97;;;5.17;;
63110;SDS011;49201;53.426;10.300;2023-02-05T15:15:28;6.60;;;4.93;;
63110;SDS011;49201;53.426;10.300;2023-02-05T15:20:44;6.83;;;5.00;;
63110;SDS011;49201;53.426;10.300;2023-02-05T15:23:16;7.53;;;4.67;;
63110;SDS011;49201;53.426;10.300;2023-02-05T15:25:53;6.33;;;4.70;;
63110;SDS011;49201;53.426;10.300;2023-02-05T15:28:23;7.50;;;4.80;;
63110;SDS011;49201;53.426;10.300;2023-02-05T15:30:57;6.87;;;5.10;;
63110;SDS011;49201;53.426;10.300;2023-02-05T15:33:28;7.50;;;4.93;;
63110;SDS011;49201;53.426;10.300;2023-02-05T15:36:02;5.57;;;4.50;;
63110;SDS011;49201;53.426;10.300;2023-02-05T15:38:43;7.73;;;4.40;;
63110;SDS011;49201;53.426;10.300;2023-02-05T15:41:16;7.33;;;4.60;;
63110;SDS011;49201;53.426;10.300;2023-02-05T15:43:55;8.37;;;5.67;;
63110;SDS011;49201;53.426;10.300;2023-02-05T15:46:23;11.10;;;5.33;;
63110;SDS011;49201;53.426;10.300;2023-02-05T15:48:48;6.67;;;4.97;;
63110;SDS011;49201;53.426;10.300;2023-02-05T15:51:21;8.07;;;5.43;;
63110;SDS011;49201;53.426;10.300;2023-02-05T15:53:49;9.33;;;5.57;;
63110;SDS011;49201;53.426;10.300;2023-02-05T15:56:20;7.70;;;4.77;;
63110;SDS011;49201;53.426;10.300;2023-02-05T15:58:49;7.57;;;5.20;;
63110;SDS011;49201;53.426;10.300;2023-02-05T16:02:00;8.87;;;5.73;;
63110;SDS011;49201;53.426;10.300;2023-02-05T16:04:19;6.07;;;4.73;;
63110;SDS011;49201;53.426;10.300;2023-02-05T16:06:49;8.10;;;5.53;;
63110;SDS011;49201;53.426;10.300;2023-02-05T16:09:16;8.17;;;5.27;;
63110;SDS011;49201;53.426;10.300;2023-02-05T16:11:43;7.10;;;5.00;;
63110;SDS011;49201;53.426;10.300;2023-02-05T16:16:51;8.67;;;5.10;;
63110;SDS011;49201;53.426;10.300;2023-02-05T16:28:12;8.03;;;4.53;;
63110;SDS011;49201;53.426;10.300;2023-02-05T16:30:42;7.57;;;5.37;;
63110;SDS011;49201;53.426;10.300;2023-02-05T16:33:44;8.90;;;5.23;;
63110;SDS011;49201;53.426;10.300;2023-02-05T16:36:06;9.50;;;5.77;;
63110;SDS011;49201;53.426;10.300;2023-02-05T16:38:40;8.47;;;5.77;;
63110;SDS011;49201;53.426;10.300;2023-02-05T16:41:24;7.77;;;5.30;;
63110;SDS011;49201;53.426;10.300;2023-02-05T16:43:53;9.77;;;5.10;;
63110;SDS011;49201;53.426;10.300;2023-02-05T16:46:26;6.43;;;4.77;;
63110;SDS011;49201;53.426;10.300;2023-02-05T16:48:57;8.03;;;4.90;;
63110;SDS011;49201;53.426;10.300;2023-02-05T16:59:31;9.53;;;6.90;;
63110;SDS011;49201;53.426;10.300;2023-02-05T17:01:59;11.93;;;6.70;;
63110;SDS011;49201;53.426;10.300;2023-02-05T17:07:03;13.60;;;7.67;;
63110;SDS011;49201;53.426;10.300;2023-02-05T17:09:40;12.87;;;8.13;;
63110;SDS011;49201;53.426;10.300;2023-02-05T17:15:08;11.70;;;8.10;;
63110;SDS011;49201;53.426;10.300;2023-02-05T17:17:58;12.63;;;7.40;;
63110;SDS011;49201;53.426;10.300;2023-02-05T17:20:30;12.87;;;8.00;;
63110;SDS011;49201;53.426;10.300;2023-02-05T17:28:12;12.03;;;7.77;;
63110;SDS011;49201;53.426;10.300;2023-02-05T17:30:42;11.27;;;7.17;;
63110;SDS011;49201;53.426;10.300;2023-02-05T17:33:12;10.27;;;6.93;;
63110;SDS011;49201;53.426;10.300;2023-02-05T17:35:40;9.33;;;7.23;;
63110;SDS011;49201;53.426;10.300;2023-02-05T17:38:05;11.93;;;8.23;;
63110;SDS011;49201;53.426;10.300;2023-02-05T17:40:31;12.07;;;7.93;;
63110;SDS011;49201;53.426;10.300;2023-02-05T17:42:56;14.00;;;10.07;;
63110;SDS011;49201;53.426;10.300;2023-02-05T17:45:22;11.27;;;7.87;;
63110;SDS011;49201;53.426;10.300;2023-02-05T17:47:49;11.47;;;8.30;;
63110;SDS011;49201;53.426;10.300;2023-02-05T17:50:15;10.70;;;7.87;;
63110;SDS011;49201;53.426;10.300;2023-02-05T17:52:41;9.17;;;7.17;;
63110;SDS011;49201;53.426;10.300;2023-02-05T17:55:10;9.37;;;7.13;;
63110;SDS011;49201;53.426;10.300;2023-02-05T17:57:38;11.53;;;7.30;;
63110;SDS011;49201;53.426;10.300;2023-02-05T18:00:04;10.97;;;7.37;;